createdAt,value
2017-07-02T00:00:04.673Z,1009.52
2017-07-02T00:01:04.652Z,1009.49
2017-07-02T00:02:04.631Z,1009.55
2017-07-02T00:03:04.609Z,1009.55
2017-07-02T00:04:04.589Z,1009.5
2017-07-02T00:05:04.569Z,1009.49
2017-07-02T00:06:04.546Z,1009.5
2017-07-02T00:07:04.531Z,1009.53
2017-07-02T00:08:04.505Z,1009.52
2017-07-02T00:09:04.536Z,1009.51
2017-07-02T00:10:04.467Z,1009.52
2017-07-02T00:11:04.440Z,1009.54
2017-07-02T00:12:04.423Z,1009.54
2017-07-02T00:13:04.403Z,1009.52
2017-07-02T00:14:04.429Z,1009.51
2017-07-02T00:15:04.357Z,1009.56
2017-07-02T00:16:04.339Z,1009.54
2017-07-02T00:17:04.319Z,1009.54
2017-07-02T00:18:04.297Z,1009.56
2017-07-02T00:19:04.278Z,1009.57
2017-07-02T00:20:04.309Z,1009.58
2017-07-02T00:21:04.233Z,1009.6
2017-07-02T00:22:04.212Z,1009.6
2017-07-02T00:23:04.194Z,1009.61
2017-07-02T00:24:04.174Z,1009.59
2017-07-02T00:25:04.149Z,1009.55
2017-07-02T00:26:04.133Z,1009.61
2017-07-02T00:27:04.158Z,1009.62
2017-07-02T00:28:04.088Z,1009.6
2017-07-02T00:29:04.066Z,1009.62
2017-07-02T00:30:04.043Z,1009.63
2017-07-02T00:31:04.024Z,1009.61
2017-07-02T00:32:04.001Z,1009.59
2017-07-02T00:33:03.982Z,1009.62
2017-07-02T00:34:03.962Z,1009.58
2017-07-02T00:35:03.944Z,1009.57
2017-07-02T00:36:03.919Z,1009.58
2017-07-02T00:37:03.897Z,1009.61
2017-07-02T00:38:03.879Z,1009.63
2017-07-02T00:39:03.858Z,1009.63
2017-07-02T00:40:03.836Z,1009.63
2017-07-02T00:41:03.814Z,1009.66
2017-07-02T00:42:03.794Z,1009.65
2017-07-02T00:43:03.769Z,1009.68
2017-07-02T00:44:03.748Z,1009.67
2017-07-02T00:45:03.730Z,1009.67
2017-07-02T00:46:03.710Z,1009.67
2017-07-02T00:47:03.688Z,1009.74
2017-07-02T00:48:03.667Z,1009.72
2017-07-02T00:49:03.650Z,1009.7
2017-07-02T00:50:03.627Z,1009.71
2017-07-02T00:51:03.605Z,1009.71
2017-07-02T00:52:03.586Z,1009.76
2017-07-02T00:53:03.563Z,1009.74
2017-07-02T00:54:03.541Z,1009.73
2017-07-02T00:55:03.521Z,1009.7
2017-07-02T00:56:03.499Z,1009.7
2017-07-02T00:57:03.482Z,1009.74
2017-07-02T00:58:03.457Z,1009.75
2017-07-02T00:59:03.441Z,1009.77
2017-07-02T01:00:03.419Z,1009.76
2017-07-02T01:01:03.397Z,1009.73
2017-07-02T01:02:03.373Z,1009.76
2017-07-02T01:03:03.353Z,1009.73
2017-07-02T01:04:03.335Z,1009.71
2017-07-02T01:05:03.560Z,1009.71
2017-07-02T01:06:03.288Z,1009.69
2017-07-02T01:07:03.270Z,1009.7
2017-07-02T01:08:03.246Z,1009.7
2017-07-02T01:09:03.224Z,1009.67
2017-07-02T01:10:03.206Z,1009.65
2017-07-02T01:11:03.182Z,1009.64
2017-07-02T01:12:03.164Z,1009.65
2017-07-02T01:13:03.142Z,1009.62
2017-07-02T01:14:03.126Z,1009.66
2017-07-02T01:15:03.099Z,1009.59
2017-07-02T01:16:03.079Z,1009.59
2017-07-02T01:17:03.059Z,1009.62
2017-07-02T01:18:03.036Z,1009.63
2017-07-02T01:19:03.015Z,1009.63
2017-07-02T01:20:02.994Z,1009.6
2017-07-02T01:21:02.972Z,1009.57
2017-07-02T01:22:02.951Z,1009.61
2017-07-02T01:23:02.930Z,1009.57
2017-07-02T01:24:02.908Z,1009.59
2017-07-02T01:25:02.891Z,1009.61
2017-07-02T01:26:02.869Z,1009.65
2017-07-02T01:27:02.846Z,1009.66
2017-07-02T01:28:02.825Z,1009.66
2017-07-02T01:29:02.805Z,1009.61
2017-07-02T01:30:02.782Z,1009.65
2017-07-02T01:31:02.760Z,1009.63
2017-07-02T01:32:02.742Z,1009.67
2017-07-02T01:33:02.720Z,1009.69
2017-07-02T01:34:02.698Z,1009.68
2017-07-02T01:35:02.675Z,1009.69
2017-07-02T01:36:02.656Z,1009.71
2017-07-02T01:37:02.636Z,1009.71
2017-07-02T01:38:02.613Z,1009.74
2017-07-02T01:39:02.591Z,1009.75
2017-07-02T01:40:02.572Z,1009.77
2017-07-02T01:41:02.551Z,1009.77
2017-07-02T01:42:02.530Z,1009.76
2017-07-02T01:43:02.508Z,1009.77
2017-07-02T01:44:02.536Z,1009.79
2017-07-02T01:45:02.466Z,1009.78
2017-07-02T01:46:02.439Z,1009.75
2017-07-02T01:47:02.425Z,1009.76
2017-07-02T01:48:02.402Z,1009.78
2017-07-02T01:49:02.380Z,1009.8
2017-07-02T01:50:02.359Z,1009.79
2017-07-02T01:51:02.342Z,1009.77
2017-07-02T01:52:02.317Z,1009.81
2017-07-02T01:53:02.297Z,1009.72
2017-07-02T01:54:02.277Z,1009.73
2017-07-02T01:55:02.253Z,1009.73
2017-07-02T01:56:02.234Z,1009.78
2017-07-02T01:57:02.210Z,1009.75
2017-07-02T01:58:02.190Z,1009.76
2017-07-02T01:59:02.168Z,1009.78
2017-07-02T02:00:02.145Z,1009.79
2017-07-02T02:01:02.127Z,1009.75
2017-07-02T02:02:02.105Z,1009.79
2017-07-02T02:03:02.085Z,1009.8
2017-07-02T02:04:02.061Z,1009.8
2017-07-02T02:05:02.043Z,1009.78
2017-07-02T02:06:02.020Z,1009.77
2017-07-02T02:07:01.996Z,1009.75
2017-07-02T02:08:01.977Z,1009.75
2017-07-02T02:09:01.956Z,1009.74
2017-07-02T02:10:01.935Z,1009.71
2017-07-02T02:11:01.912Z,1009.69
2017-07-02T02:12:01.893Z,1009.67
2017-07-02T02:13:01.870Z,1009.71
2017-07-02T02:14:01.850Z,1009.69
2017-07-02T02:15:01.827Z,1009.69
2017-07-02T02:16:01.805Z,1009.66
2017-07-02T02:17:01.791Z,1009.65
2017-07-02T02:18:01.764Z,1009.66
2017-07-02T02:19:01.742Z,1009.65
2017-07-02T02:20:01.722Z,1009.65
2017-07-02T02:21:01.702Z,1009.68
2017-07-02T02:22:01.679Z,1009.68
2017-07-02T02:23:01.656Z,1009.69
2017-07-02T02:24:01.637Z,1009.67
2017-07-02T02:25:01.614Z,1009.69
2017-07-02T02:26:01.594Z,1009.65
2017-07-02T02:27:01.575Z,1009.68
2017-07-02T02:28:01.553Z,1009.67
2017-07-02T02:29:01.536Z,1009.62
2017-07-02T02:30:01.509Z,1009.65
2017-07-02T02:31:01.484Z,1009.68
2017-07-02T02:32:01.467Z,1009.67
2017-07-02T02:33:01.446Z,1009.69
2017-07-02T02:34:01.674Z,1009.68
2017-07-02T02:35:01.399Z,1009.65
2017-07-02T02:36:01.386Z,1009.64
2017-07-02T02:37:01.358Z,1009.71
2017-07-02T02:38:01.337Z,1009.69
2017-07-02T02:39:01.316Z,1009.67
2017-07-02T02:40:01.293Z,1009.72
2017-07-02T02:41:01.273Z,1009.73
2017-07-02T02:42:01.254Z,1009.74
2017-07-02T02:43:01.233Z,1009.68
2017-07-02T02:44:01.210Z,1009.68
2017-07-02T02:45:01.188Z,1009.7
2017-07-02T02:46:01.167Z,1009.65
2017-07-02T02:47:01.148Z,1009.68
2017-07-02T02:48:01.125Z,1009.7
2017-07-02T02:49:01.106Z,1009.67
2017-07-02T02:50:01.086Z,1009.65
2017-07-02T02:51:01.112Z,1009.67
2017-07-02T02:52:01.042Z,1009.61
2017-07-02T02:53:01.021Z,1009.62
2017-07-02T02:54:00.999Z,1009.66
2017-07-02T02:55:01.080Z,1009.65
2017-07-02T02:56:00.959Z,1009.61
2017-07-02T02:57:00.936Z,1009.62
2017-07-02T02:58:00.917Z,1009.63
2017-07-02T02:59:00.893Z,1009.63
2017-07-02T03:00:00.872Z,1009.64
2017-07-02T03:01:00.852Z,1009.62
2017-07-02T03:02:00.830Z,1009.62
2017-07-02T03:03:00.809Z,1009.62
2017-07-02T03:04:00.788Z,1009.63
2017-07-02T03:05:00.765Z,1009.62
2017-07-02T03:06:00.749Z,1009.65
2017-07-02T03:07:00.726Z,1009.68
2017-07-02T03:08:00.700Z,1009.67
2017-07-02T03:09:00.681Z,1009.69
2017-07-02T03:10:00.660Z,1009.66
2017-07-02T03:11:00.637Z,1009.68
2017-07-02T03:12:00.618Z,1009.7
2017-07-02T03:13:00.596Z,1009.74
2017-07-02T03:14:00.571Z,1009.8
2017-07-02T03:15:00.553Z,1009.72
2017-07-02T03:16:00.531Z,1009.78
2017-07-02T03:17:00.508Z,1009.78
2017-07-02T03:18:00.493Z,1009.79
2017-07-02T03:19:00.469Z,1009.8
2017-07-02T03:20:00.498Z,1009.78
2017-07-02T03:21:00.428Z,1009.75
2017-07-02T03:22:00.406Z,1009.78
2017-07-02T03:23:00.385Z,1009.8
2017-07-02T03:24:00.364Z,1009.83
2017-07-02T03:25:00.342Z,1009.89
2017-07-02T03:26:00.321Z,1009.87
2017-07-02T03:27:00.300Z,1009.89
2017-07-02T03:28:00.278Z,1009.81
2017-07-02T03:29:00.259Z,1009.82
2017-07-02T03:30:00.237Z,1009.77
2017-07-02T03:31:00.216Z,1009.78
2017-07-02T03:32:00.194Z,1009.82
2017-07-02T03:33:00.172Z,1009.79
2017-07-02T03:34:00.151Z,1009.8
2017-07-02T03:35:00.130Z,1009.8
2017-07-02T03:36:00.107Z,1009.82
2017-07-02T03:37:00.087Z,1009.8
2017-07-02T03:38:00.067Z,1009.83
2017-07-02T03:39:00.044Z,1009.83
2017-07-02T03:40:00.024Z,1009.85
2017-07-02T03:41:00.002Z,1009.86
2017-07-02T03:41:59.982Z,1009.9
2017-07-02T03:42:59.966Z,1009.86
2017-07-02T03:43:59.939Z,1009.86
2017-07-02T03:44:59.918Z,1009.87
2017-07-02T03:45:59.899Z,1009.88
2017-07-02T03:46:59.875Z,1009.87
2017-07-02T03:47:59.858Z,1009.87
2017-07-02T03:48:59.835Z,1009.87
2017-07-02T03:49:59.812Z,1009.89
2017-07-02T03:50:59.790Z,1009.88
2017-07-02T03:51:59.820Z,1009.94
2017-07-02T03:52:59.748Z,1009.91
2017-07-02T03:53:59.726Z,1009.88
2017-07-02T03:54:59.708Z,1009.9
2017-07-02T03:55:59.689Z,1009.93
2017-07-02T03:56:59.663Z,1009.92
2017-07-02T03:57:59.643Z,1009.94
2017-07-02T03:58:59.622Z,1009.89
2017-07-02T03:59:59.602Z,1009.9
2017-07-02T04:00:59.578Z,1009.89
2017-07-02T04:01:59.560Z,1009.89
2017-07-02T04:02:59.537Z,1009.87
2017-07-02T04:03:59.514Z,1009.9
2017-07-02T04:04:59.494Z,1009.91
2017-07-02T04:05:59.474Z,1009.86
2017-07-02T04:06:59.452Z,1009.88
2017-07-02T04:07:59.431Z,1009.86
2017-07-02T04:08:59.410Z,1009.87
2017-07-02T04:09:59.389Z,1009.9
2017-07-02T04:10:59.366Z,1009.86
2017-07-02T04:11:59.350Z,1009.85
2017-07-02T04:12:59.372Z,1009.89
2017-07-02T04:13:59.304Z,1009.89
2017-07-02T04:14:59.283Z,1009.91
2017-07-02T04:15:59.266Z,1009.93
2017-07-02T04:16:59.243Z,1009.93
2017-07-02T04:17:59.220Z,1009.94
2017-07-02T04:18:59.199Z,1009.96
2017-07-02T04:19:59.185Z,1009.96
2017-07-02T04:20:59.159Z,1009.98
2017-07-02T04:21:59.141Z,1009.98
2017-07-02T04:22:59.114Z,1009.94
2017-07-02T04:23:59.095Z,1009.93
2017-07-02T04:24:59.074Z,1009.95
2017-07-02T04:25:59.056Z,1009.89
2017-07-02T04:26:59.032Z,1009.96
2017-07-02T04:27:59.012Z,1009.93
2017-07-02T04:28:58.990Z,1009.97
2017-07-02T04:29:58.968Z,1009.96
2017-07-02T04:30:58.947Z,1009.93
2017-07-02T04:31:58.928Z,1009.89
2017-07-02T04:32:58.906Z,1009.9
2017-07-02T04:33:58.885Z,1009.89
2017-07-02T04:34:58.864Z,1009.89
2017-07-02T04:35:58.843Z,1009.89
2017-07-02T04:36:58.823Z,1009.92
2017-07-02T04:37:58.804Z,1009.94
2017-07-02T04:38:58.780Z,1009.89
2017-07-02T04:39:58.757Z,1009.91
2017-07-02T04:40:58.737Z,1009.94
2017-07-02T04:41:58.766Z,1009.9
2017-07-02T04:42:58.693Z,1009.88
2017-07-02T04:43:58.674Z,1009.86
2017-07-02T04:44:58.660Z,1009.9
2017-07-02T04:45:58.634Z,1009.93
2017-07-02T04:46:58.611Z,1009.94
2017-07-02T04:47:58.591Z,1009.94
2017-07-02T04:48:58.570Z,1009.94
2017-07-02T04:49:58.550Z,1009.91
2017-07-02T04:50:58.531Z,1010
2017-07-02T04:51:58.508Z,1009.99
2017-07-02T04:52:58.486Z,1009.98
2017-07-02T04:53:58.466Z,1010
2017-07-02T04:54:58.444Z,1010.05
2017-07-02T04:55:58.423Z,1010.08
2017-07-02T04:56:58.403Z,1010.06
2017-07-02T04:57:58.382Z,1010.05
2017-07-02T04:58:58.414Z,1010.08
2017-07-02T04:59:58.340Z,1010.08
2017-07-02T05:00:58.318Z,1010.05
2017-07-02T05:01:58.300Z,1010.02
2017-07-02T05:02:58.279Z,1010.06
2017-07-02T05:03:58.258Z,1010.03
2017-07-02T05:04:58.236Z,1010.02
2017-07-02T05:05:58.215Z,1009.99
2017-07-02T05:06:58.195Z,1010.02
2017-07-02T05:07:58.173Z,1010.03
2017-07-02T05:08:58.207Z,1009.96
2017-07-02T05:09:58.134Z,1010
2017-07-02T05:10:58.115Z,1010.03
2017-07-02T05:11:58.092Z,1010.01
2017-07-02T05:12:58.070Z,1010.01
2017-07-02T05:13:58.052Z,1010
2017-07-02T05:14:58.030Z,1010.06
2017-07-02T05:15:58.007Z,1010.03
2017-07-02T05:16:57.988Z,1010.04
2017-07-02T05:17:57.967Z,1010.01
2017-07-02T05:18:57.948Z,1010
2017-07-02T05:19:57.922Z,1010.05
2017-07-02T05:20:57.903Z,1010.09
2017-07-02T05:21:57.885Z,1010.11
2017-07-02T05:22:57.867Z,1010.05
2017-07-02T05:23:57.843Z,1010.11
2017-07-02T05:24:57.820Z,1010.1
2017-07-02T05:25:57.802Z,1010.05
2017-07-02T05:26:57.786Z,1010.11
2017-07-02T05:27:57.765Z,1010.11
2017-07-02T05:28:57.741Z,1010.06
2017-07-02T05:29:57.720Z,1010.08
2017-07-02T05:30:57.698Z,1010.09
2017-07-02T05:31:57.677Z,1010.03
2017-07-02T05:32:57.658Z,1010.01
2017-07-02T05:33:57.637Z,1010.02
2017-07-02T05:34:57.616Z,1010.07
2017-07-02T05:35:57.596Z,1010.02
2017-07-02T05:36:57.575Z,1010
2017-07-02T05:37:57.556Z,1009.99
2017-07-02T05:38:57.533Z,1010
2017-07-02T05:39:57.517Z,1009.94
2017-07-02T05:40:57.494Z,1009.95
2017-07-02T05:41:57.473Z,1009.96
2017-07-02T05:42:57.448Z,1009.94
2017-07-02T05:43:57.435Z,1009.94
2017-07-02T05:44:57.411Z,1009.93
2017-07-02T05:45:57.390Z,1009.92
2017-07-02T05:46:57.370Z,1009.94
2017-07-02T05:47:57.349Z,1009.87
2017-07-02T05:48:57.334Z,1009.96
2017-07-02T05:49:57.358Z,1009.97
2017-07-02T05:50:57.288Z,1009.94
2017-07-02T05:51:57.269Z,1009.94
2017-07-02T05:52:57.250Z,1009.99
2017-07-02T05:53:57.229Z,1009.96
2017-07-02T05:54:57.211Z,1009.89
2017-07-02T05:55:57.189Z,1009.92
2017-07-02T05:56:57.171Z,1009.9
2017-07-02T05:57:57.152Z,1009.95
2017-07-02T05:58:57.131Z,1009.91
2017-07-02T05:59:57.111Z,1009.94
2017-07-02T06:00:57.097Z,1009.99
2017-07-02T06:01:57.073Z,1010.02
2017-07-02T06:02:57.053Z,1009.99
2017-07-02T06:03:57.033Z,1010.01
2017-07-02T06:04:57.015Z,1010.04
2017-07-02T06:05:56.997Z,1010.02
2017-07-02T06:06:56.979Z,1010.1
2017-07-02T06:07:56.957Z,1010.07
2017-07-02T06:08:56.940Z,1010.05
2017-07-02T06:09:56.927Z,1010.07
2017-07-02T06:10:56.902Z,1010.06
2017-07-02T06:11:56.883Z,1010.11
2017-07-02T06:12:56.914Z,1010.07
2017-07-02T06:13:56.847Z,1010.12
2017-07-02T06:14:56.827Z,1010.08
2017-07-02T06:15:56.814Z,1010.14
2017-07-02T06:16:57.041Z,1010.15
2017-07-02T06:17:56.773Z,1010.11
2017-07-02T06:18:56.753Z,1010.15
2017-07-02T06:19:56.733Z,1010.14
2017-07-02T06:20:56.716Z,1010.09
2017-07-02T06:21:56.697Z,1010.2
2017-07-02T06:22:56.677Z,1010.11
2017-07-02T06:23:56.657Z,1010.18
2017-07-02T06:24:56.643Z,1010.11
2017-07-02T06:25:56.618Z,1010.19
2017-07-02T06:26:56.600Z,1010.18
2017-07-02T06:27:56.581Z,1010.18
2017-07-02T06:28:56.563Z,1010.17
2017-07-02T06:29:56.543Z,1010.18
2017-07-02T06:30:56.524Z,1010.16
2017-07-02T06:31:56.504Z,1010.16
2017-07-02T06:32:56.486Z,1010.16
2017-07-02T06:33:56.514Z,1010.16
2017-07-02T06:34:56.446Z,1010.2
2017-07-02T06:35:56.428Z,1010.25
2017-07-02T06:36:56.408Z,1010.21
2017-07-02T06:37:56.387Z,1010.24
2017-07-02T06:38:56.368Z,1010.18
2017-07-02T06:39:56.349Z,1010.23
2017-07-02T06:40:56.334Z,1010.23
2017-07-02T06:41:56.312Z,1010.26
2017-07-02T06:42:56.294Z,1010.21
2017-07-02T06:43:56.273Z,1010.22
2017-07-02T06:44:56.250Z,1010.26
2017-07-02T06:45:56.231Z,1010.24
2017-07-02T06:46:56.212Z,1010.24
2017-07-02T06:47:56.193Z,1010.19
2017-07-02T06:48:56.173Z,1010.28
2017-07-02T06:49:56.156Z,1010.25
2017-07-02T06:50:56.143Z,1010.16
2017-07-02T06:51:56.116Z,1010.14
2017-07-02T06:52:56.097Z,1010.16
2017-07-02T06:53:56.080Z,1010.18
2017-07-02T06:54:56.057Z,1010.2
2017-07-02T06:55:56.041Z,1010.2
2017-07-02T06:56:56.019Z,1010.18
2017-07-02T06:57:56.003Z,1010.25
2017-07-02T06:58:55.984Z,1010.21
2017-07-02T06:59:55.966Z,1010.23
2017-07-02T07:00:55.943Z,1010.25
2017-07-02T07:01:55.925Z,1010.26
2017-07-02T07:02:55.905Z,1010.27
2017-07-02T07:03:55.887Z,1010.27
2017-07-02T07:04:55.867Z,1010.31
2017-07-02T07:05:55.851Z,1010.24
2017-07-02T07:06:55.835Z,1010.28
2017-07-02T07:07:55.811Z,1010.22
2017-07-02T07:08:55.793Z,1010.25
2017-07-02T07:09:55.772Z,1010.2
2017-07-02T07:10:55.751Z,1010.2
2017-07-02T07:11:55.736Z,1010.27
2017-07-02T07:12:55.713Z,1010.26
2017-07-02T07:13:55.692Z,1010.25
2017-07-02T07:14:55.674Z,1010.26
2017-07-02T07:15:55.649Z,1010.26
2017-07-02T07:16:55.632Z,1010.24
2017-07-02T07:17:55.611Z,1010.29
2017-07-02T07:18:55.596Z,1010.28
2017-07-02T07:19:55.577Z,1010.31
2017-07-02T07:20:55.555Z,1010.36
2017-07-02T07:21:55.535Z,1010.46
2017-07-02T07:22:55.517Z,1010.43
2017-07-02T07:23:55.498Z,1010.46
2017-07-02T07:24:55.477Z,1010.46
2017-07-02T07:25:55.457Z,1010.48
2017-07-02T07:26:55.438Z,1010.47
2017-07-02T07:27:55.424Z,1010.48
2017-07-02T07:28:55.397Z,1010.47
2017-07-02T07:29:55.428Z,1010.48
2017-07-02T07:30:55.362Z,1010.46
2017-07-02T07:31:55.338Z,1010.42
2017-07-02T07:32:55.327Z,1010.48
2017-07-02T07:33:55.304Z,1010.47
2017-07-02T07:34:55.284Z,1010.48
2017-07-02T07:35:55.259Z,1010.55
2017-07-02T07:36:55.242Z,1010.55
2017-07-02T07:37:55.220Z,1010.54
2017-07-02T07:38:55.202Z,1010.52
2017-07-02T07:39:55.180Z,1010.48
2017-07-02T07:40:55.163Z,1010.48
2017-07-02T07:41:55.144Z,1010.47
2017-07-02T07:42:55.123Z,1010.53
2017-07-02T07:43:55.105Z,1010.48
2017-07-02T07:44:55.086Z,1010.48
2017-07-02T07:45:55.064Z,1010.49
2017-07-02T07:46:55.047Z,1010.5
2017-07-02T07:47:55.026Z,1010.54
2017-07-02T07:48:55.005Z,1010.51
2017-07-02T07:49:54.987Z,1010.55
2017-07-02T07:50:54.964Z,1010.52
2017-07-02T07:51:54.947Z,1010.55
2017-07-02T07:52:54.926Z,1010.61
2017-07-02T07:53:54.905Z,1010.57
2017-07-02T07:54:54.885Z,1010.57
2017-07-02T07:55:54.866Z,1010.57
2017-07-02T07:56:54.852Z,1010.57
2017-07-02T07:57:54.826Z,1010.64
2017-07-02T07:58:54.809Z,1010.63
2017-07-02T07:59:54.790Z,1010.65
2017-07-02T08:00:54.819Z,1010.66
2017-07-02T08:01:54.751Z,1010.67
2017-07-02T08:02:54.735Z,1010.64
2017-07-02T08:03:54.707Z,1010.69
2017-07-02T08:04:54.685Z,1010.71
2017-07-02T08:05:54.667Z,1010.7
2017-07-02T08:06:54.647Z,1010.7
2017-07-02T08:07:54.630Z,1010.74
2017-07-02T08:08:54.603Z,1010.67
2017-07-02T08:09:54.589Z,1010.67
2017-07-02T08:10:54.567Z,1010.69
2017-07-02T08:11:54.550Z,1010.71
2017-07-02T08:12:54.525Z,1010.7
2017-07-02T08:13:54.507Z,1010.71
2017-07-02T08:14:54.487Z,1010.69
2017-07-02T08:15:54.466Z,1010.69
2017-07-02T08:16:54.461Z,1010.74
2017-07-02T08:17:54.428Z,1010.71
2017-07-02T08:18:54.407Z,1010.72
2017-07-02T08:19:54.438Z,1010.7
2017-07-02T08:20:54.370Z,1010.75
2017-07-02T08:21:54.347Z,1010.75
2017-07-02T08:22:54.331Z,1010.77
2017-07-02T08:23:54.306Z,1010.73
2017-07-02T08:24:54.289Z,1010.75
2017-07-02T08:25:54.265Z,1010.79
2017-07-02T08:26:54.247Z,1010.81
2017-07-02T08:27:54.225Z,1010.83
2017-07-02T08:28:54.205Z,1010.79
2017-07-02T08:29:54.187Z,1010.74
2017-07-02T08:30:54.216Z,1010.8
2017-07-02T08:31:54.199Z,1010.75
2017-07-02T08:32:54.125Z,1010.8
2017-07-02T08:33:54.106Z,1010.83
2017-07-02T08:34:54.087Z,1010.87
2017-07-02T08:35:54.064Z,1010.82
2017-07-02T08:36:54.047Z,1010.86
2017-07-02T08:37:54.030Z,1010.86
2017-07-02T08:38:54.006Z,1010.89
2017-07-02T08:39:53.995Z,1010.9
2017-07-02T08:40:53.967Z,1010.94
2017-07-02T08:41:53.948Z,1010.89
2017-07-02T08:42:53.927Z,1010.89
2017-07-02T08:43:53.909Z,1010.91
2017-07-02T08:44:53.889Z,1010.95
2017-07-02T08:45:53.869Z,1010.97
2017-07-02T08:46:53.846Z,1010.94
2017-07-02T08:47:53.828Z,1010.94
2017-07-02T08:48:53.806Z,1010.91
2017-07-02T08:49:53.791Z,1010.92
2017-07-02T08:50:53.769Z,1010.96
2017-07-02T08:51:53.747Z,1010.93
2017-07-02T08:52:53.728Z,1010.9
2017-07-02T08:53:53.756Z,1010.94
2017-07-02T08:54:53.691Z,1010.95
2017-07-02T08:55:53.672Z,1010.98
2017-07-02T08:56:53.646Z,1010.94
2017-07-02T08:57:53.679Z,1010.94
2017-07-02T08:58:53.606Z,1010.92
2017-07-02T08:59:53.587Z,1010.9
2017-07-02T09:00:53.563Z,1010.9
2017-07-02T09:01:53.545Z,1010.91
2017-07-02T09:02:53.526Z,1010.96
2017-07-02T09:03:53.503Z,1010.93
2017-07-02T09:04:53.487Z,1010.96
2017-07-02T09:05:53.470Z,1010.96
2017-07-02T09:06:53.446Z,1010.97
2017-07-02T09:07:53.433Z,1010.96
2017-07-02T09:08:53.410Z,1010.96
2017-07-02T09:09:53.390Z,1010.94
2017-07-02T09:10:53.366Z,1010.98
2017-07-02T09:11:53.350Z,1010.98
2017-07-02T09:12:53.333Z,1011.03
2017-07-02T09:13:53.307Z,1011.03
2017-07-02T09:14:53.287Z,1011.02
2017-07-02T09:15:53.318Z,1011.04
2017-07-02T09:16:53.250Z,1011.06
2017-07-02T09:17:53.229Z,1011.05
2017-07-02T09:18:53.208Z,1011.02
2017-07-02T09:19:53.190Z,1010.98
2017-07-02T09:20:53.169Z,1011.03
2017-07-02T09:21:53.152Z,1011.04
2017-07-02T09:22:53.127Z,1011.05
2017-07-02T09:23:53.114Z,1011.14
2017-07-02T09:24:53.092Z,1011.14
2017-07-02T09:25:53.068Z,1011.13
2017-07-02T09:26:53.050Z,1011.19
2017-07-02T09:27:53.029Z,1011.15
2017-07-02T09:28:53.010Z,1011.15
2017-07-02T09:29:52.990Z,1011.14
2017-07-02T09:30:52.973Z,1011.13
2017-07-02T09:31:52.951Z,1011.15
2017-07-02T09:32:52.929Z,1011.16
2017-07-02T09:33:52.910Z,1011.13
2017-07-02T09:34:52.896Z,1011.17
2017-07-02T09:35:52.873Z,1011.14
2017-07-02T09:36:52.852Z,1011.22
2017-07-02T09:37:52.833Z,1011.17
2017-07-02T09:38:52.815Z,1011.21
2017-07-02T09:39:52.794Z,1011.2
2017-07-02T09:40:52.774Z,1011.19
2017-07-02T09:41:52.755Z,1011.23
2017-07-02T09:42:52.736Z,1011.2
2017-07-02T09:43:52.712Z,1011.21
2017-07-02T09:44:52.697Z,1011.22
2017-07-02T09:45:52.676Z,1011.23
2017-07-02T09:46:52.659Z,1011.27
2017-07-02T09:47:52.637Z,1011.2
2017-07-02T09:48:52.620Z,1011.21
2017-07-02T09:49:52.597Z,1011.24
2017-07-02T09:50:52.577Z,1011.22
2017-07-02T09:51:52.560Z,1011.22
2017-07-02T09:52:52.541Z,1011.26
2017-07-02T09:53:52.521Z,1011.24
2017-07-02T09:54:52.500Z,1011.29
2017-07-02T09:55:52.479Z,1011.26
2017-07-02T09:56:52.463Z,1011.28
2017-07-02T09:57:52.442Z,1011.28
2017-07-02T09:58:52.425Z,1011.26
2017-07-02T09:59:52.406Z,1011.29
2017-07-02T10:00:52.438Z,1011.23
2017-07-02T10:01:52.365Z,1011.27
2017-07-02T10:02:52.347Z,1011.29
2017-07-02T10:03:52.323Z,1011.27
2017-07-02T10:04:52.306Z,1011.3
2017-07-02T10:05:52.282Z,1011.29
2017-07-02T10:06:52.269Z,1011.28
2017-07-02T10:07:52.248Z,1011.27
2017-07-02T10:08:52.227Z,1011.27
2017-07-02T10:09:52.209Z,1011.29
2017-07-02T10:10:52.188Z,1011.28
2017-07-02T10:11:52.171Z,1011.28
2017-07-02T10:12:52.158Z,1011.3
2017-07-02T10:13:52.133Z,1011.27
2017-07-02T10:14:52.113Z,1011.27
2017-07-02T10:15:52.099Z,1011.28
2017-07-02T10:16:52.076Z,1011.26
2017-07-02T10:17:52.057Z,1011.35
2017-07-02T10:18:52.038Z,1011.32
2017-07-02T10:19:52.017Z,1011.26
2017-07-02T10:20:52.000Z,1011.26
2017-07-02T10:21:51.985Z,1011.29
2017-07-02T10:22:51.964Z,1011.28
2017-07-02T10:23:51.943Z,1011.26
2017-07-02T10:24:51.923Z,1011.28
2017-07-02T10:25:51.904Z,1011.35
2017-07-02T10:26:51.887Z,1011.33
2017-07-02T10:27:51.866Z,1011.36
2017-07-02T10:28:51.846Z,1011.33
2017-07-02T10:29:51.829Z,1011.34
2017-07-02T10:30:51.812Z,1011.37
2017-07-02T10:31:51.790Z,1011.36
2017-07-02T10:32:51.772Z,1011.42
2017-07-02T10:33:51.758Z,1011.4
2017-07-02T10:34:51.734Z,1011.43
2017-07-02T10:35:51.714Z,1011.43
2017-07-02T10:36:51.700Z,1011.43
2017-07-02T10:37:51.674Z,1011.48
2017-07-02T10:38:51.656Z,1011.43
2017-07-02T10:39:51.635Z,1011.42
2017-07-02T10:40:51.628Z,1011.43
2017-07-02T10:41:51.600Z,1011.45
2017-07-02T10:42:51.583Z,1011.48
2017-07-02T10:43:51.565Z,1011.47
2017-07-02T10:44:51.548Z,1011.47
2017-07-02T10:45:51.522Z,1011.49
2017-07-02T10:46:51.558Z,1011.49
2017-07-02T10:47:51.482Z,1011.54
2017-07-02T10:48:51.483Z,1011.5
2017-07-02T10:49:51.444Z,1011.53
2017-07-02T10:50:51.429Z,1011.56
2017-07-02T10:51:51.405Z,1011.62
2017-07-02T10:52:51.385Z,1011.59
2017-07-02T10:53:51.365Z,1011.63
2017-07-02T10:54:51.347Z,1011.56
2017-07-02T10:55:51.328Z,1011.61
2017-07-02T10:56:51.309Z,1011.65
2017-07-02T10:57:51.288Z,1011.63
2017-07-02T10:58:51.268Z,1011.58
2017-07-02T10:59:51.299Z,1011.64
2017-07-02T11:00:51.228Z,1011.61
2017-07-02T11:01:51.208Z,1011.59
2017-07-02T11:02:51.187Z,1011.65
2017-07-02T11:03:51.168Z,1011.62
2017-07-02T11:04:51.150Z,1011.59
2017-07-02T11:05:51.130Z,1011.57
2017-07-02T11:06:51.114Z,1011.63
2017-07-02T11:07:51.086Z,1011.66
2017-07-02T11:08:51.066Z,1011.57
2017-07-02T11:09:51.046Z,1011.59
2017-07-02T11:10:51.074Z,1011.63
2017-07-02T11:11:51.010Z,1011.58
2017-07-02T11:12:50.986Z,1011.57
2017-07-02T11:13:50.964Z,1011.63
2017-07-02T11:14:50.951Z,1011.68
2017-07-02T11:15:50.922Z,1011.7
2017-07-02T11:16:50.900Z,1011.67
2017-07-02T11:17:50.934Z,1011.7
2017-07-02T11:18:50.861Z,1011.7
2017-07-02T11:19:50.845Z,1011.69
2017-07-02T11:20:50.825Z,1011.73
2017-07-02T11:21:50.803Z,1011.68
2017-07-02T11:22:50.788Z,1011.73
2017-07-02T11:23:50.760Z,1011.72
2017-07-02T11:24:50.740Z,1011.71
2017-07-02T11:25:50.719Z,1011.71
2017-07-02T11:26:50.702Z,1011.67
2017-07-02T11:27:50.677Z,1011.71
2017-07-02T11:28:50.660Z,1011.66
2017-07-02T11:29:50.644Z,1011.75
2017-07-02T11:30:50.617Z,1011.71
2017-07-02T11:31:50.597Z,1011.75
2017-07-02T11:32:50.585Z,1011.7
2017-07-02T11:33:50.558Z,1011.73
2017-07-02T11:34:50.539Z,1011.73
2017-07-02T11:35:50.518Z,1011.76
2017-07-02T11:36:50.500Z,1011.78
2017-07-02T11:37:50.488Z,1011.74
2017-07-02T11:38:50.456Z,1011.73
2017-07-02T11:39:50.440Z,1011.76
2017-07-02T11:40:50.419Z,1011.77
2017-07-02T11:41:50.400Z,1011.75
2017-07-02T11:42:50.380Z,1011.8
2017-07-02T11:43:50.371Z,1011.78
2017-07-02T11:44:50.341Z,1011.8
2017-07-02T11:45:50.321Z,1011.77
2017-07-02T11:46:50.300Z,1011.81
2017-07-02T11:47:50.277Z,1011.73
2017-07-02T11:48:50.265Z,1011.77
2017-07-02T11:49:50.236Z,1011.81
2017-07-02T11:50:50.226Z,1011.77
2017-07-02T11:51:50.257Z,1011.76
2017-07-02T11:52:50.186Z,1011.79
2017-07-02T11:53:50.165Z,1011.79
2017-07-02T11:54:50.148Z,1011.77
2017-07-02T11:55:50.129Z,1011.8
2017-07-02T11:56:50.107Z,1011.75
2017-07-02T11:57:50.091Z,1011.77
2017-07-02T11:58:50.068Z,1011.75
2017-07-02T11:59:50.048Z,1011.71
2017-07-02T12:00:50.028Z,1011.68
2017-07-02T12:01:50.012Z,1011.71
2017-07-02T12:02:49.991Z,1011.7
2017-07-02T12:03:49.969Z,1011.69
2017-07-02T12:04:49.952Z,1011.69
2017-07-02T12:05:49.932Z,1011.7
2017-07-02T12:06:49.910Z,1011.7
2017-07-02T12:07:49.897Z,1011.75